createdAt,value
2022-08-07T00:00:35.570Z,2.63
2022-08-07T00:05:53.183Z,2.55
2022-08-07T00:08:44.408Z,2.47
2022-08-07T00:11:32.968Z,2.60
2022-08-07T00:14:18.454Z,2.78
2022-08-07T00:17:02.480Z,2.85
2022-08-07T00:20:00.360Z,2.70
2022-08-07T00:22:40.847Z,2.33
2022-08-07T00:25:37.464Z,2.78
2022-08-07T00:28:24.032Z,2.40
2022-08-07T00:31:12.607Z,2.90
2022-08-07T00:33:47.720Z,2.60
2022-08-07T00:36:27.600Z,2.33
2022-08-07T00:39:06.646Z,2.80
2022-08-07T00:42:05.279Z,2.58
2022-08-07T00:44:49.620Z,2.60
2022-08-07T00:48:08.218Z,2.67
2022-08-07T00:50:46.049Z,2.58
2022-08-07T00:53:50.743Z,2.20
2022-08-07T00:56:33.833Z,2.67
2022-08-07T00:59:10.600Z,3.10
2022-08-07T01:01:44.929Z,2.53
2022-08-07T01:04:24.920Z,2.80
2022-08-07T01:07:01.719Z,2.50
2022-08-07T01:10:05.754Z,2.40
2022-08-07T01:12:53.702Z,2.58
2022-08-07T01:16:05.307Z,3.22
2022-08-07T01:18:52.456Z,2.90
2022-08-07T01:21:36.916Z,2.88
2022-08-07T01:24:18.701Z,3.00
2022-08-07T01:27:00.628Z,3.13
2022-08-07T01:29:34.370Z,3.05
2022-08-07T01:32:19.032Z,3.00
2022-08-07T01:35:11.945Z,3.08
2022-08-07T01:37:56.007Z,3.15
2022-08-07T01:43:20.199Z,2.97
2022-08-07T01:45:56.733Z,2.53
2022-08-07T01:48:41.161Z,2.55
2022-08-07T01:52:02.130Z,3.00
2022-08-07T01:54:58.926Z,2.72
2022-08-07T01:58:05.507Z,3.00
2022-08-07T02:01:25.170Z,3.13
2022-08-07T02:04:02.983Z,3.38
2022-08-07T02:06:44.537Z,2.78
2022-08-07T02:09:52.063Z,2.63
2022-08-07T02:12:30.843Z,2.72
2022-08-07T02:15:18.263Z,2.67
2022-08-07T02:17:56.500Z,2.80
2022-08-07T02:20:41.925Z,3.05
2022-08-07T02:23:30.634Z,3.20
2022-08-07T02:26:33.122Z,3.45
2022-08-07T02:29:21.766Z,3.00
2022-08-07T02:32:01.109Z,3.15
2022-08-07T02:34:48.756Z,3.13
2022-08-07T02:37:26.902Z,3.45
2022-08-07T02:40:29.699Z,2.85
2022-08-07T02:43:14.061Z,3.40
2022-08-07T02:46:02.110Z,3.03
2022-08-07T02:48:39.662Z,3.03
2022-08-07T02:51:42.417Z,2.90
2022-08-07T02:54:29.734Z,2.72
2022-08-07T02:57:13.619Z,2.65
2022-08-07T02:59:54.867Z,3.03
2022-08-07T03:02:54.389Z,2.28
2022-08-07T03:05:37.070Z,2.78
2022-08-07T03:08:09.463Z,2.95
2022-08-07T03:10:49.871Z,3.50
2022-08-07T03:13:29.386Z,4.05
2022-08-07T03:18:50.304Z,4.15
2022-08-07T03:21:33.070Z,4.27
2022-08-07T03:24:27.452Z,3.90
2022-08-07T03:27:09.050Z,3.60
2022-08-07T03:29:53.066Z,4.50
2022-08-07T03:32:32.521Z,4.13
2022-08-07T03:35:17.630Z,5.57
2022-08-07T03:37:59.255Z,4.70
2022-08-07T03:40:44.267Z,3.95
2022-08-07T03:43:20.890Z,4.50
2022-08-07T03:46:18.493Z,3.70
2022-08-07T03:49:03.586Z,3.55
2022-08-07T03:51:47.297Z,4.13
2022-08-07T03:54:35.457Z,2.40
2022-08-07T03:58:35.450Z,2.28
2022-08-07T04:00:33.588Z,3.10
2022-08-07T04:03:19.788Z,1.95
2022-08-07T04:06:00.689Z,2.20
2022-08-07T04:08:53.266Z,2.20
2022-08-07T04:12:26.214Z,2.17
2022-08-07T04:14:43.598Z,2.00
2022-08-07T04:18:11.171Z,1.83
2022-08-07T04:20:35.337Z,1.88
2022-08-07T04:23:18.527Z,1.65
2022-08-07T04:26:00.646Z,1.50
2022-08-07T04:28:35.717Z,1.60
2022-08-07T04:31:08.373Z,1.60
2022-08-07T04:36:35.944Z,1.52
2022-08-07T04:39:12.765Z,1.65
2022-08-07T04:41:50.365Z,1.65
2022-08-07T04:44:28.170Z,1.38
2022-08-07T04:47:57.302Z,1.48
2022-08-07T04:50:43.467Z,1.40
2022-08-07T04:54:06.610Z,1.40
2022-08-07T04:58:11.507Z,1.20
2022-08-07T05:00:24.009Z,1.10
2022-08-07T05:04:01.038Z,1.73
2022-08-07T05:06:43.700Z,1.10
2022-08-07T05:09:46.111Z,1.13
2022-08-07T05:12:46.209Z,1.05
2022-08-07T05:15:42.744Z,1.30
2022-08-07T05:18:42.122Z,1.50
2022-08-07T05:21:59.289Z,1.70
2022-08-07T05:24:39.723Z,1.50
2022-08-07T05:28:15.778Z,1.10
2022-08-07T05:30:32.373Z,1.40
2022-08-07T05:33:13.782Z,1.30
2022-08-07T05:36:00.425Z,1.33
2022-08-07T05:39:00.462Z,1.30
2022-08-07T05:42:02.290Z,1.23
2022-08-07T05:45:04.225Z,1.10
2022-08-07T05:47:38.153Z,1.27
2022-08-07T05:50:45.980Z,1.30
2022-08-07T05:54:13.953Z,1.00
2022-08-07T05:56:29.983Z,1.00
2022-08-07T05:59:09.650Z,1.55
2022-08-07T06:01:51.553Z,0.95
2022-08-07T06:04:29.790Z,1.20
2022-08-07T06:07:12.261Z,1.20
2022-08-07T06:10:06.552Z,0.95
2022-08-07T06:12:51.378Z,1.17
2022-08-07T06:15:39.388Z,1.25
2022-08-07T06:18:31.673Z,1.02
2022-08-07T06:22:15.071Z,1.42
2022-08-07T06:24:45.894Z,1.15
2022-08-07T06:28:00.566Z,0.90
2022-08-07T06:30:46.008Z,1.10
2022-08-07T06:33:30.652Z,0.90
2022-08-07T06:36:27.509Z,1.17
2022-08-07T06:40:13.120Z,0.88
2022-08-07T06:42:32.811Z,0.90
2022-08-07T06:45:39.745Z,1.10
2022-08-07T06:48:24.822Z,0.80
2022-08-07T06:51:09.431Z,0.90
2022-08-07T06:55:29.207Z,0.95
2022-08-07T06:57:12.700Z,1.20
2022-08-07T07:00:12.468Z,1.08
2022-08-07T07:02:57.396Z,1.10
2022-08-07T07:06:05.180Z,1.05
2022-08-07T07:08:36.225Z,1.00
2022-08-07T07:12:07.646Z,1.02
2022-08-07T07:14:08.355Z,0.73
2022-08-07T07:16:53.435Z,1.23
2022-08-07T07:19:56.973Z,1.00
2022-08-07T07:24:05.381Z,1.33
2022-08-07T07:26:35.940Z,1.10
2022-08-07T07:29:56.879Z,1.42
2022-08-07T07:32:02.178Z,0.93
2022-08-07T07:34:56.373Z,1.00
2022-08-07T07:40:37.221Z,1.08
2022-08-07T07:43:18.820Z,1.02
2022-08-07T07:46:39.753Z,1.15
2022-08-07T07:49:00.075Z,1.05
2022-08-07T07:51:58.580Z,0.70
2022-08-07T07:54:36.087Z,1.15
2022-08-07T07:57:21.162Z,1.10
2022-08-07T08:00:28.921Z,1.05
2022-08-07T08:03:16.949Z,0.82
2022-08-07T08:06:19.295Z,1.00
2022-08-07T08:08:54.429Z,1.20
2022-08-07T08:11:59.865Z,0.88
2022-08-07T08:14:42.709Z,0.90
2022-08-07T08:17:57.775Z,1.40
2022-08-07T08:20:22.173Z,0.90
2022-08-07T08:23:30.681Z,0.70
2022-08-07T08:26:36.529Z,0.90
2022-08-07T08:29:08.277Z,0.95
2022-08-07T08:32:17.326Z,0.88
2022-08-07T08:35:01.643Z,1.00
2022-08-07T08:38:00.738Z,0.95
2022-08-07T08:41:05.516Z,1.10
2022-08-07T08:44:18.982Z,1.00
2022-08-07T08:47:19.776Z,1.13
2022-08-07T08:50:34.786Z,0.80
2022-08-07T08:53:19.414Z,1.15
2022-08-07T08:56:04.631Z,1.10
2022-08-07T08:59:12.717Z,1.05
2022-08-07T09:02:14.646Z,0.88
2022-08-07T09:04:51.196Z,1.10
2022-08-07T09:07:58.209Z,0.70
2022-08-07T09:10:45.956Z,1.17
2022-08-07T09:13:50.424Z,1.30
2022-08-07T09:16:47.627Z,1.23
2022-08-07T09:19:52.879Z,0.98
2022-08-07T09:24:31.666Z,1.00
2022-08-07T09:26:36.411Z,1.15
2022-08-07T09:30:05.298Z,1.15
2022-08-07T09:32:42.573Z,1.30
2022-08-07T09:36:04.386Z,1.02
2022-08-07T09:39:55.249Z,0.98
2022-08-07T09:42:41.099Z,1.20
2022-08-07T09:47:55.665Z,1.00
2022-08-07T09:50:02.271Z,1.10
2022-08-07T09:52:55.577Z,1.50
2022-08-07T09:56:03.721Z,1.30
2022-08-07T09:59:07.838Z,1.30
2022-08-07T10:02:24.229Z,0.98
2022-08-07T10:06:00.183Z,0.90
2022-08-07T10:09:09.398Z,1.70
2022-08-07T10:12:21.769Z,1.50
2022-08-07T10:15:18.762Z,1.27
2022-08-07T10:18:31.636Z,1.35
2022-08-07T10:22:12.313Z,1.50
2022-08-07T10:25:23.002Z,1.30
2022-08-07T10:28:02.528Z,1.42
2022-08-07T10:30:58.033Z,1.02
2022-08-07T10:34:15.720Z,1.27
2022-08-07T10:38:00.716Z,1.45
2022-08-07T10:40:49.860Z,1.75
2022-08-07T10:43:45.111Z,1.30
2022-08-07T10:46:42.497Z,1.40
2022-08-07T10:49:24.561Z,1.35
2022-08-07T10:53:21.680Z,1.35
2022-08-07T11:03:02.037Z,1.42
2022-08-07T11:05:50.689Z,1.50
2022-08-07T11:08:46.085Z,1.70
2022-08-07T11:11:41.862Z,1.30
2022-08-07T11:14:59.949Z,1.45
2022-08-07T11:17:43.387Z,1.75
2022-08-07T11:20:50.252Z,1.60
2022-08-07T11:26:50.444Z,1.30
2022-08-07T11:30:10.009Z,1.10
2022-08-07T11:33:01.603Z,1.52
2022-08-07T11:36:30.481Z,1.20
2022-08-07T11:40:01.691Z,1.70
2022-08-07T11:42:59.191Z,1.40
2022-08-07T11:45:53.669Z,1.40
2022-08-07T11:49:27.683Z,1.30
2022-08-07T11:52:37.722Z,1.25
2022-08-07T11:56:25.507Z,1.20
2022-08-07T11:58:59.625Z,1.45
2022-08-07T12:02:20.586Z,1.13
2022-08-07T12:05:41.713Z,1.45
2022-08-07T12:09:01.465Z,1.40
2022-08-07T12:12:08.777Z,1.40
2022-08-07T12:15:46.120Z,1.65
2022-08-07T12:18:31.321Z,1.35
2022-08-07T12:22:36.373Z,1.30
2022-08-07T12:26:00.357Z,1.20
2022-08-07T12:28:33.364Z,1.20
2022-08-07T12:32:02.291Z,1.27
2022-08-07T12:34:55.853Z,1.60
2022-08-07T12:38:10.638Z,1.38
2022-08-07T12:41:42.835Z,1.33
2022-08-07T12:52:39.607Z,1.83
2022-08-07T12:55:40.477Z,1.45
2022-08-07T12:58:19.908Z,1.50
2022-08-07T13:01:15.685Z,1.40
2022-08-07T13:04:34.379Z,1.50
2022-08-07T13:08:14.007Z,1.27
2022-08-07T13:14:23.068Z,1.55
2022-08-07T13:17:42.516Z,1.70
2022-08-07T13:20:44.627Z,1.60
2022-08-07T13:24:00.822Z,1.63
2022-08-07T13:27:05.678Z,1.50
2022-08-07T13:30:03.681Z,1.58
2022-08-07T13:33:00.894Z,1.70
2022-08-07T13:36:01.128Z,1.38
2022-08-07T13:38:55.609Z,1.55
2022-08-07T13:42:00.299Z,1.40
2022-08-07T13:44:55.452Z,1.65
2022-08-07T13:48:05.445Z,1.58
2022-08-07T13:51:01.469Z,2.17
2022-08-07T13:53:59.668Z,2.00
2022-08-07T13:56:51.902Z,1.45
2022-08-07T13:59:39.818Z,2.15
2022-08-07T14:02:29.719Z,1.63
2022-08-07T14:08:01.553Z,1.92
2022-08-07T14:11:02.018Z,1.98
2022-08-07T14:14:05.931Z,1.70
2022-08-07T14:16:49.894Z,2.10
2022-08-07T14:20:41.971Z,1.77
2022-08-07T14:22:49.449Z,1.45
2022-08-07T14:25:39.387Z,1.45
2022-08-07T14:28:16.656Z,1.30
2022-08-07T14:30:58.903Z,1.20
2022-08-07T14:33:44.665Z,1.80
2022-08-07T14:36:28.712Z,1.40
2022-08-07T14:39:12.494Z,1.70
2022-08-07T14:42:31.234Z,1.23
2022-08-07T14:45:21.370Z,1.75
2022-08-07T14:48:05.072Z,1.80
2022-08-07T14:50:53.388Z,1.67
2022-08-07T14:53:49.988Z,1.38
2022-08-07T14:56:41.507Z,1.85
2022-08-07T15:00:03.105Z,1.25
2022-08-07T15:02:37.285Z,1.30
2022-08-07T15:05:23.598Z,1.73
2022-08-07T15:08:04.772Z,1.50
2022-08-07T15:10:58.848Z,1.75
2022-08-07T15:13:41.616Z,1.70
2022-08-07T15:22:33.708Z,1.55
2022-08-07T15:25:36.872Z,1.65
2022-08-07T15:28:34.137Z,1.40
2022-08-07T15:34:28.542Z,1.77
2022-08-07T15:37:28.299Z,1.90
2022-08-07T15:40:11.526Z,1.50
2022-08-07T15:42:55.952Z,1.50
2022-08-07T15:45:55.716Z,1.70
2022-08-07T15:54:49.651Z,1.58
2022-08-07T15:57:48.155Z,1.42
2022-08-07T16:00:33.518Z,1.40
2022-08-07T16:03:47.136Z,1.70
2022-08-07T16:06:36.321Z,1.45
2022-08-07T16:09:42.848Z,1.40
2022-08-07T16:13:04.754Z,1.55
2022-08-07T16:16:42.990Z,1.58
2022-08-07T16:19:59.238Z,1.58
2022-08-07T16:22:55.494Z,1.40
2022-08-07T16:26:09.791Z,1.40
2022-08-07T16:30:09.541Z,1.35
2022-08-07T16:32:54.565Z,1.30
2022-08-07T16:35:56.759Z,1.38
2022-08-07T16:39:02.476Z,1.50
2022-08-07T16:41:57.804Z,1.50
2022-08-07T16:45:30.978Z,1.42
2022-08-07T16:48:34.493Z,1.70
2022-08-07T16:52:51.072Z,1.60
2022-08-07T16:55:47.519Z,1.50
2022-08-07T16:59:10.173Z,1.42
2022-08-07T17:01:56.606Z,1.70
2022-08-07T17:04:51.133Z,1.40
2022-08-07T17:08:01.814Z,1.48
2022-08-07T17:11:18.899Z,1.60
2022-08-07T17:14:19.591Z,1.38
2022-08-07T17:17:01.067Z,1.48
2022-08-07T17:20:01.549Z,1.42
2022-08-07T17:23:00.084Z,1.50
2022-08-07T17:26:35.831Z,1.73
2022-08-07T17:30:14.245Z,1.58
2022-08-07T17:32:59.095Z,1.38
2022-08-07T17:35:57.547Z,1.58
2022-08-07T17:38:37.359Z,1.95
2022-08-07T17:42:02.616Z,1.40
2022-08-07T17:44:50.584Z,1.85
2022-08-07T17:47:43.876Z,1.75
2022-08-07T17:50:42.479Z,1.65
2022-08-07T17:54:02.100Z,1.60
2022-08-07T17:56:49.875Z,1.30
2022-08-07T18:00:13.107Z,2.20
2022-08-07T18:03:26.629Z,1.98
2022-08-07T18:06:16.596Z,1.80
2022-08-07T18:10:05.292Z,1.70
2022-08-07T18:13:09.594Z,1.70
2022-08-07T18:16:34.485Z,1.60
2022-08-07T18:21:06.591Z,1.45
2022-08-07T18:22:55.192Z,1.60
2022-08-07T18:25:39.243Z,1.75
2022-08-07T18:28:34.219Z,1.70
2022-08-07T18:32:04.702Z,1.50
2022-08-07T18:52:44.602Z,1.98
2022-08-07T18:55:41.992Z,1.50
2022-08-07T18:58:34.909Z,1.73
2022-08-07T19:02:18.037Z,1.90
2022-08-07T19:06:02.865Z,1.25
2022-08-07T19:09:09.571Z,1.65
2022-08-07T19:12:57.844Z,1.13
2022-08-07T19:16:04.376Z,1.00
2022-08-07T19:19:12.976Z,1.30
2022-08-07T19:22:04.480Z,1.23
2022-08-07T19:24:50.765Z,1.25
2022-08-07T19:28:58.035Z,1.45
2022-08-07T19:31:03.996Z,1.50
2022-08-07T19:33:43.725Z,1.40
2022-08-07T19:36:52.216Z,1.40
2022-08-07T19:39:56.877Z,1.38
2022-08-07T19:42:40.533Z,1.10
2022-08-07T19:46:04.732Z,1.23
2022-08-07T19:48:53.788Z,1.25
2022-08-07T19:51:52.637Z,1.33
2022-08-07T19:54:45.039Z,1.30
2022-08-07T19:58:04.310Z,1.40
2022-08-07T20:00:57.120Z,1.10
2022-08-07T20:03:59.450Z,1.17
2022-08-07T20:06:46.685Z,1.45
2022-08-07T20:10:37.958Z,1.33
2022-08-07T20:12:34.923Z,1.45
2022-08-07T20:18:14.632Z,1.30
2022-08-07T20:21:20.856Z,0.88
2022-08-07T20:24:08.081Z,1.38
2022-08-07T20:26:51.942Z,1.30
2022-08-07T20:29:48.243Z,1.45
2022-08-07T20:32:40.302Z,1.40
2022-08-07T20:35:26.479Z,1.27
2022-08-07T20:38:01.756Z,1.40
2022-08-07T20:40:54.501Z,1.50
2022-08-07T20:43:47.732Z,1.23
2022-08-07T20:46:44.075Z,1.70
2022-08-07T20:50:00.834Z,1.52
2022-08-07T20:52:50.504Z,0.90
2022-08-07T20:55:35.815Z,1.30
2022-08-07T20:58:19.562Z,1.35
2022-08-07T21:01:19.858Z,1.40
2022-08-07T21:04:21.873Z,1.45
2022-08-07T21:07:14.294Z,1.35
2022-08-07T21:10:00.735Z,1.50
2022-08-07T21:12:43.016Z,1.40
2022-08-07T21:15:47.844Z,1.48
2022-08-07T21:18:46.364Z,1.40
2022-08-07T21:21:56.786Z,1.65
2022-08-07T21:24:50.010Z,1.30
2022-08-07T21:27:46.767Z,1.55
2022-08-07T21:30:31.810Z,1.58
2022-08-07T21:33:52.683Z,1.20
2022-08-07T21:37:13.747Z,1.80
2022-08-07T21:40:07.339Z,2.00
2022-08-07T21:42:53.003Z,1.38
2022-08-07T21:46:10.050Z,1.52
2022-08-07T21:49:21.218Z,1.60
2022-08-07T21:52:16.491Z,1.63
2022-08-07T21:55:14.636Z,1.80
2022-08-07T21:58:53.279Z,1.67
2022-08-07T22:02:10.769Z,1.83
2022-08-07T22:04:54.278Z,1.73
2022-08-07T22:07:58.406Z,2.05
2022-08-07T22:10:42.189Z,1.80
2022-08-07T22:13:24.019Z,2.03
2022-08-07T22:16:45.560Z,1.83
2022-08-07T22:19:31.377Z,1.52
2022-08-07T22:22:27.896Z,1.65
2022-08-07T22:25:26.365Z,1.83
2022-08-07T22:28:31.098Z,1.90
2022-08-07T22:31:55.932Z,1.98
2022-08-07T22:34:55.955Z,1.70
2022-08-07T22:38:05.369Z,1.48
2022-08-07T22:42:03.723Z,1.52
2022-08-07T22:44:35.888Z,1.42
2022-08-07T22:47:58.702Z,1.77
2022-08-07T22:51:15.203Z,1.80
2022-08-07T22:54:14.924Z,1.58
2022-08-07T22:57:25.913Z,1.60
2022-08-07T23:00:12.933Z,1.70
2022-08-07T23:03:09.930Z,1.50
2022-08-07T23:06:14.667Z,1.50
2022-08-07T23:08:58.658Z,1.60
2022-08-07T23:12:34.275Z,1.45
2022-08-07T23:16:06.128Z,1.60
2022-08-07T23:19:15.551Z,1.48
2022-08-07T23:22:21.676Z,1.42
2022-08-07T23:25:29.511Z,1.40
2022-08-07T23:28:29.084Z,1.50
2022-08-07T23:31:06.461Z,1.30
2022-08-07T23:34:23.925Z,1.35
2022-08-07T23:37:20.429Z,1.60
2022-08-07T23:40:29.367Z,1.40
2022-08-07T23:43:17.457Z,1.50
2022-08-07T23:46:11.798Z,1.55
2022-08-07T23:49:24.812Z,1.70
2022-08-07T23:53:06.291Z,1.70
2022-08-07T23:56:21.984Z,1.63
